Time;durP1;ratioP1;P1;durP2;ratioP2;P2;SDS_P1;SDS_P2;PMS_P1;PMS_P2;Temp;Humidity;BMP_temperature;BMP_pressure;BME280_temperature;BME280_humidity;BME280_pressure;Samples;Min_cycle;Max_cycle;Signal;HPM_P1;HPM_P2
2023/12/14 00:02:05;;;;;;;9.68;3.05;;;;;;;;;;5056181;28;20045;-70
2023/12/14 00:04:32;;;;;;;8.55;2.72;;;;;;;;;;5050152;28;20075;-70
2023/12/14 00:06:59;;;;;;;6.80;3.10;;;;;;;;;;5055564;28;20058;-70
2023/12/14 00:09:28;;;;;;;10.10;3.28;;;;;;;;;;5056279;28;20053;-70
2023/12/14 00:11:55;;;;;;;7.78;2.72;;;;;;;;;;5040853;28;20495;-70
2023/12/14 00:14:22;;;;;;;10.73;2.70;;;;;;;;;;5049432;28;20049;-70
2023/12/14 00:16:50;;;;;;;11.55;2.80;;;;;;;;;;5050302;28;20131;-70
2023/12/14 00:19:17;;;;;;;9.48;3.10;;;;;;;;;;5052132;28;20129;-70
2023/12/14 00:21:44;;;;;;;8.63;2.78;;;;;;;;;;5051242;28;20048;-70
2023/12/14 00:24:12;;;;;;;7.85;2.72;;;;;;;;;;5052960;28;20053;-70
2023/12/14 00:26:40;;;;;;;7.15;2.55;;;;;;;;;;5049447;28;20041;-70
2023/12/14 00:29:08;;;;;;;3.78;1.75;;;;;;;;;;5045400;28;20048;-70
2023/12/14 00:31:35;;;;;;;8.90;2.22;;;;;;;;;;5052800;28;20079;-70
2023/12/14 00:34:02;;;;;;;6.38;2.63;;;;;;;;;;5050970;28;20056;-70
2023/12/14 00:36:30;;;;;;;7.13;2.33;;;;;;;;;;5048417;28;20491;-70
2023/12/14 00:38:57;;;;;;;7.32;2.45;;;;;;;;;;5053583;28;20580;-70
2023/12/14 00:41:24;;;;;;;6.93;2.30;;;;;;;;;;5061453;28;20123;-70
2023/12/14 00:43:53;;;;;;;7.68;2.85;;;;;;;;;;5052779;28;20123;-70
2023/12/14 00:46:20;;;;;;;11.20;2.88;;;;;;;;;;5052168;28;20396;-70
2023/12/14 00:48:47;;;;;;;7.80;2.95;;;;;;;;;;5045655;28;20050;-70
2023/12/14 00:51:14;;;;;;;6.22;2.53;;;;;;;;;;5054106;28;20143;-70
2023/12/14 00:53:42;;;;;;;8.80;2.72;;;;;;;;;;5035396;28;20041;-70
2023/12/14 00:56:09;;;;;;;5.28;2.95;;;;;;;;;;5034558;28;20054;-70
2023/12/14 00:58:37;;;;;;;7.90;3.08;;;;;;;;;;5049696;28;20136;-70
2023/12/14 01:01:05;;;;;;;6.88;2.72;;;;;;;;;;5055693;28;20472;-70
2023/12/14 01:03:33;;;;;;;5.75;2.50;;;;;;;;;;5043016;28;20950;-70
2023/12/14 01:06:00;;;;;;;5.60;2.53;;;;;;;;;;5048354;28;20486;-70
2023/12/14 01:08:27;;;;;;;8.40;2.70;;;;;;;;;;5044594;28;20045;-70
2023/12/14 01:10:54;;;;;;;6.07;2.67;;;;;;;;;;5056688;28;20072;-70
2023/12/14 01:13:22;;;;;;;7.22;2.50;;;;;;;;;;5058801;28;20048;-70
2023/12/14 01:15:49;;;;;;;7.05;2.70;;;;;;;;;;5053968;28;20045;-70
2023/12/14 01:18:18;;;;;;;7.65;2.80;;;;;;;;;;5054378;28;20049;-70
2023/12/14 01:20:45;;;;;;;7.10;2.95;;;;;;;;;;5053157;28;20091;-70
2023/12/14 01:23:12;;;;;;;6.40;3.20;;;;;;;;;;5045976;28;20052;-70
2023/12/14 01:25:39;;;;;;;5.60;2.58;;;;;;;;;;5059931;28;20496;-70
2023/12/14 01:28:08;;;;;;;6.97;3.33;;;;;;;;;;5034679;28;20045;-70
2023/12/14 01:30:35;;;;;;;8.32;2.80;;;;;;;;;;5051466;28;20049;-70
2023/12/14 01:33:02;;;;;;;6.88;2.75;;;;;;;;;;5050210;28;20059;-70
2023/12/14 01:35:31;;;;;;;7.88;2.75;;;;;;;;;;5061543;28;20072;-70
2023/12/14 01:37:58;;;;;;;6.97;2.97;;;;;;;;;;5051511;28;20052;-70
2023/12/14 01:40:25;;;;;;;9.90;3.40;;;;;;;;;;5056216;28;20532;-70
2023/12/14 01:42:53;;;;;;;8.43;3.40;;;;;;;;;;5063123;28;20052;-70
2023/12/14 01:45:20;;;;;;;14.80;3.80;;;;;;;;;;5033907;28;20060;-70
2023/12/14 01:47:47;;;;;;;9.80;3.13;;;;;;;;;;5056315;28;20048;-70
2023/12/14 01:50:14;;;;;;;9.05;3.17;;;;;;;;;;5041651;28;20139;-70
2023/12/14 01:52:43;;;;;;;9.63;3.30;;;;;;;;;;5031937;28;20145;-70
2023/12/14 01:55:10;;;;;;;17.27;3.75;;;;;;;;;;5048480;28;20053;-70
2023/12/14 01:57:37;;;;;;;12.63;3.95;;;;;;;;;;5056864;28;20044;-70
2023/12/14 02:00:05;;;;;;;9.43;4.07;;;;;;;;;;5056089;28;20053;-70
2023/12/14 02:02:32;;;;;;;8.25;4.00;;;;;;;;;;5056007;28;20049;-70
2023/12/14 02:05:00;;;;;;;11.20;3.63;;;;;;;;;;5057497;28;20091;-70
2023/12/14 02:07:27;;;;;;;13.25;4.15;;;;;;;;;;5052010;28;20253;-70
2023/12/14 02:09:56;;;;;;;7.03;3.33;;;;;;;;;;5055549;28;20049;-70
2023/12/14 02:12:23;;;;;;;13.65;3.53;;;;;;;;;;5052866;28;20060;-70
2023/12/14 02:14:50;;;;;;;12.27;3.58;;;;;;;;;;5048011;28;20508;-70
2023/12/14 02:17:17;;;;;;;9.18;3.45;;;;;;;;;;5053735;28;20045;-70
2023/12/14 02:19:44;;;;;;;6.97;3.33;;;;;;;;;;5050123;28;20076;-70
2023/12/14 02:22:12;;;;;;;8.73;3.47;;;;;;;;;;5039423;28;20052;-70
2023/12/14 02:24:40;;;;;;;9.25;3.28;;;;;;;;;;5057497;28;20052;-70
2023/12/14 02:27:07;;;;;;;6.55;3.67;;;;;;;;;;5058793;28;20080;-70
2023/12/14 02:29:35;;;;;;;7.40;3.35;;;;;;;;;;5026742;28;20098;-70
2023/12/14 02:32:02;;;;;;;11.05;3.67;;;;;;;;;;5054623;28;20505;-70
2023/12/14 02:34:29;;;;;;;9.35;4.35;;;;;;;;;;5036932;28;20056;-70
2023/12/14 02:36:56;;;;;;;8.43;3.80;;;;;;;;;;5055803;28;20056;-70
2023/12/14 02:39:24;;;;;;;7.88;4.18;;;;;;;;;;5051846;28;20670;-70
2023/12/14 02:41:52;;;;;;;7.63;3.80;;;;;;;;;;5049115;28;20047;-70
2023/12/14 02:44:19;;;;;;;10.38;3.90;;;;;;;;;;5055820;28;20057;-70
2023/12/14 02:46:47;;;;;;;11.10;4.10;;;;;;;;;;5038327;28;20044;-70
2023/12/14 02:49:14;;;;;;;10.15;4.10;;;;;;;;;;5051927;28;20048;-70
2023/12/14 02:51:41;;;;;;;10.43;4.35;;;;;;;;;;5032709;28;20061;-70
2023/12/14 02:54:08;;;;;;;11.05;4.13;;;;;;;;;;5030383;28;20612;-70
2023/12/14 02:56:36;;;;;;;12.20;4.60;;;;;;;;;;5031920;28;20128;-70
2023/12/14 02:59:04;;;;;;;12.02;4.68;;;;;;;;;;5049641;28;20055;-70
2023/12/14 03:01:31;;;;;;;14.57;4.40;;;;;;;;;;5036729;28;20048;-70
2023/12/14 03:03:59;;;;;;;21.67;5.20;;;;;;;;;;5058328;28;20040;-70
2023/12/14 03:06:26;;;;;;;11.82;5.07;;;;;;;;;;5055678;28;20056;-70
2023/12/14 03:08:53;;;;;;;16.98;5.25;;;;;;;;;;5039069;28;20047;-70
2023/12/14 03:11:24;;;;;;;13.30;5.07;;;;;;;;;;5035610;28;20523;-70
2023/12/14 03:13:51;;;;;;;11.93;5.22;;;;;;;;;;5045669;28;20041;-70
2023/12/14 03:16:20;;;;;;;13.15;5.25;;;;;;;;;;5058727;28;20059;-70
2023/12/14 03:18:52;;;;;;;15.50;5.43;;;;;;;;;;5056219;28;20044;-70
2023/12/14 03:21:19;;;;;;;13.02;5.22;;;;;;;;;;5052055;28;20048;-70
2023/12/14 03:23:46;;;;;;;19.65;6.22;;;;;;;;;;5052049;28;20071;-70
2023/12/14 03:26:14;;;;;;;18.05;6.07;;;;;;;;;;5049785;28;20041;-70
2023/12/14 03:28:41;;;;;;;13.50;5.68;;;;;;;;;;5050617;28;20041;-70
2023/12/14 03:31:08;;;;;;;18.27;5.53;;;;;;;;;;5056151;28;20052;-70
2023/12/14 03:33:37;;;;;;;19.67;5.85;;;;;;;;;;5048398;28;20060;-70
2023/12/14 03:36:05;;;;;;;14.77;5.68;;;;;;;;;;5056982;28;20113;-70
2023/12/14 03:38:32;;;;;;;16.15;6.40;;;;;;;;;;5023489;28;20042;-70
2023/12/14 03:41:00;;;;;;;16.00;6.43;;;;;;;;;;5049656;28;20041;-70
2023/12/14 03:43:28;;;;;;;17.70;5.63;;;;;;;;;;5050759;28;20484;-70
2023/12/14 03:45:55;;;;;;;18.27;5.90;;;;;;;;;;5050873;28;20053;-70
2023/12/14 03:48:22;;;;;;;18.02;6.03;;;;;;;;;;5051948;28;20059;-70
2023/12/14 03:50:51;;;;;;;18.92;6.05;;;;;;;;;;5050156;28;20108;-70
2023/12/14 03:53:19;;;;;;;15.30;6.00;;;;;;;;;;5048027;28;20102;-70
2023/12/14 03:55:46;;;;;;;14.48;6.47;;;;;;;;;;5056933;28;20045;-70
2023/12/14 03:58:14;;;;;;;17.70;5.90;;;;;;;;;;5052396;28;20041;-70
2023/12/14 04:00:41;;;;;;;17.85;5.80;;;;;;;;;;5053366;28;20052;-70
2023/12/14 04:03:08;;;;;;;14.82;5.55;;;;;;;;;;5046526;28;20063;-70
2023/12/14 04:05:38;;;;;;;13.07;5.78;;;;;;;;;;5042678;28;20479;-70
2023/12/14 04:08:07;;;;;;;22.48;5.80;;;;;;;;;;5044104;28;20501;-70
2023/12/14 04:10:34;;;;;;;13.60;6.15;;;;;;;;;;5039194;28;20052;-70
2023/12/14 04:13:01;;;;;;;14.20;5.00;;;;;;;;;;5051706;28;20051;-70
2023/12/14 04:15:29;;;;;;;16.13;5.53;;;;;;;;;;5055652;28;20399;-70
2023/12/14 04:17:56;;;;;;;12.43;5.43;;;;;;;;;;5030093;28;20045;-70
2023/12/14 04:20:23;;;;;;;15.15;4.30;;;;;;;;;;5053203;28;20059;-70
2023/12/14 04:22:50;;;;;;;17.00;4.90;;;;;;;;;;5037381;28;20475;-70
2023/12/14 04:25:19;;;;;;;19.15;5.30;;;;;;;;;;5058311;28;20056;-70
2023/12/14 04:27:46;;;;;;;14.68;5.78;;;;;;;;;;5051339;28;20049;-70
2023/12/14 04:30:14;;;;;;;16.58;5.55;;;;;;;;;;5032997;28;20060;-70
2023/12/14 04:32:41;;;;;;;12.13;5.50;;;;;;;;;;5044461;28;20377;-70
2023/12/14 04:35:08;;;;;;;19.08;5.43;;;;;;;;;;5048986;28;20057;-70
2023/12/14 04:37:36;;;;;;;18.52;6.28;;;;;;;;;;5048717;28;20053;-70
2023/12/14 04:40:03;;;;;;;17.10;5.40;;;;;;;;;;5047745;28;20615;-70
2023/12/14 04:42:32;;;;;;;18.45;5.75;;;;;;;;;;5035616;28;20049;-70
2023/12/14 04:44:59;;;;;;;15.30;5.63;;;;;;;;;;5046061;28;20068;-70
2023/12/14 04:47:26;;;;;;;17.33;5.68;;;;;;;;;;5049461;28;20045;-70
2023/12/14 04:49:54;;;;;;;15.25;5.95;;;;;;;;;;5053659;28;20326;-70
2023/12/14 04:52:21;;;;;;;15.18;6.03;;;;;;;;;;5052386;28;20106;-70
2023/12/14 04:54:48;;;;;;;17.30;6.40;;;;;;;;;;5055369;28;20511;-70
2023/12/14 04:57:15;;;;;;;17.98;5.97;;;;;;;;;;5054451;28;20052;-70
2023/12/14 04:59:44;;;;;;;15.30;5.97;;;;;;;;;;5049815;28;20052;-70
2023/12/14 05:02:11;;;;;;;24.23;6.07;;;;;;;;;;5045909;28;20048;-70
2023/12/14 05:04:39;;;;;;;23.92;8.95;;;;;;;;;;5030026;28;20053;-70
2023/12/14 05:07:06;;;;;;;16.63;5.28;;;;;;;;;;5050800;28;20064;-70
2023/12/14 05:09:33;;;;;;;19.33;5.72;;;;;;;;;;5054990;28;20143;-70
2023/12/14 05:12:00;;;;;;;14.63;5.75;;;;;;;;;;5039472;28;20488;-70
2023/12/14 05:14:29;;;;;;;18.38;6.60;;;;;;;;;;5049739;28;20045;-70
2023/12/14 05:16:58;;;;;;;20.90;6.68;;;;;;;;;;5055463;28;20496;-70
2023/12/14 05:19:25;;;;;;;16.25;6.75;;;;;;;;;;5053237;28;20403;-70
2023/12/14 05:21:54;;;;;;;20.92;6.97;;;;;;;;;;5047033;28;20045;-70
2023/12/14 05:24:21;;;;;;;23.60;7.15;;;;;;;;;;5050345;28;20407;-70
2023/12/14 05:26:49;;;;;;;19.17;7.13;;;;;;;;;;5060041;28;20093;-70
2023/12/14 05:29:17;;;;;;;18.30;7.20;;;;;;;;;;5046408;28;20322;-70
2023/12/14 05:31:44;;;;;;;20.05;6.72;;;;;;;;;;5057601;28;20048;-70
2023/12/14 05:34:13;;;;;;;18.40;6.65;;;;;;;;;;5047873;28;20052;-70
2023/12/14 05:36:40;;;;;;;14.07;7.13;;;;;;;;;;5055863;28;20139;-70
2023/12/14 05:39:08;;;;;;;17.75;6.93;;;;;;;;;;5050797;28;20045;-70
2023/12/14 05:41:40;;;;;;;20.50;7.10;;;;;;;;;;5056338;28;20126;-70
2023/12/14 05:44:08;;;;;;;20.98;6.38;;;;;;;;;;5037513;28;20046;-70
2023/12/14 05:46:35;;;;;;;18.17;6.57;;;;;;;;;;5048342;28;20114;-70
2023/12/14 05:49:03;;;;;;;14.77;6.30;;;;;;;;;;5052798;28;20056;-70
2023/12/14 05:51:32;;;;;;;18.98;6.88;;;;;;;;;;5048928;28;20049;-70
2023/12/14 05:54:00;;;;;;;14.52;5.95;;;;;;;;;;5049717;28;20052;-70
2023/12/14 05:56:27;;;;;;;14.88;6.10;;;;;;;;;;5048851;28;20412;-70
2023/12/14 05:58:54;;;;;;;17.80;7.88;;;;;;;;;;5053153;28;20061;-70
2023/12/14 06:01:22;;;;;;;20.33;6.97;;;;;;;;;;5052885;28;20057;-70
2023/12/14 06:03:49;;;;;;;21.48;9.27;;;;;;;;;;5062022;28;20044;-70
2023/12/14 06:06:16;;;;;;;16.38;7.97;;;;;;;;;;5056146;28;20064;-70
2023/12/14 06:08:45;;;;;;;15.45;6.38;;;;;;;;;;5056131;28;20048;-70
2023/12/14 06:11:12;;;;;;;12.18;6.10;;;;;;;;;;5053989;28;20056;-70
2023/12/14 06:13:40;;;;;;;25.50;7.55;;;;;;;;;;5048713;28;20044;-70
2023/12/14 06:16:12;;;;;;;16.63;6.18;;;;;;;;;;5048488;28;20045;-70
2023/12/14 06:18:41;;;;;;;18.30;6.32;;;;;;;;;;5054560;28;20053;-69
2023/12/14 06:21:09;;;;;;;12.23;5.80;;;;;;;;;;5049930;28;20053;-70
2023/12/14 06:23:36;;;;;;;13.80;6.53;;;;;;;;;;5054127;28;20099;-71
2023/12/14 06:26:05;;;;;;;15.35;6.10;;;;;;;;;;5033782;28;20511;-72
2023/12/14 06:28:33;;;;;;;16.38;6.10;;;;;;;;;;5048964;28;20398;-70
2023/12/14 06:31:01;;;;;;;10.82;5.72;;;;;;;;;;5049984;28;20053;-70
2023/12/14 06:33:28;;;;;;;12.68;6.10;;;;;;;;;;5053412;28;20411;-70
2023/12/14 06:35:55;;;;;;;15.48;6.57;;;;;;;;;;5050238;28;20154;-70
2023/12/14 06:38:23;;;;;;;17.08;6.13;;;;;;;;;;5051590;28;20084;-70
2023/12/14 06:40:50;;;;;;;25.80;6.57;;;;;;;;;;5052842;28;21663;-69
2023/12/14 06:43:19;;;;;;;16.63;6.03;;;;;;;;;;5047908;28;20053;-69
2023/12/14 06:45:46;;;;;;;17.60;6.22;;;;;;;;;;5052863;28;20053;-70
2023/12/14 06:48:13;;;;;;;13.43;5.63;;;;;;;;;;5035807;28;20052;-70
2023/12/14 06:50:41;;;;;;;14.43;5.95;;;;;;;;;;5051469;28;20045;-69
2023/12/14 06:53:08;;;;;;;16.55;5.97;;;;;;;;;;5045349;28;20049;-69
2023/12/14 06:55:36;;;;;;;20.00;6.75;;;;;;;;;;5059189;28;20048;-70
2023/12/14 06:58:04;;;;;;;18.80;8.48;;;;;;;;;;5050868;28;20044;-69
2023/12/14 07:00:32;;;;;;;14.57;6.45;;;;;;;;;;5028845;28;20052;-69
2023/12/14 07:03:00;;;;;;;16.20;6.82;;;;;;;;;;5030097;28;20484;-69
2023/12/14 07:05:27;;;;;;;13.07;5.75;;;;;;;;;;5050799;28;20057;-69
2023/12/14 07:07:54;;;;;;;17.50;6.95;;;;;;;;;;5045757;28;20060;-69
2023/12/14 07:10:22;;;;;;;16.23;6.00;;;;;;;;;;5047459;28;20459;-69
2023/12/14 07:12:49;;;;;;;13.68;6.43;;;;;;;;;;5028538;28;20106;-69
2023/12/14 07:15:16;;;;;;;15.68;5.82;;;;;;;;;;5049510;28;20045;-69
2023/12/14 07:17:45;;;;;;;12.93;5.65;;;;;;;;;;5052354;28;20059;-69
2023/12/14 07:20:13;;;;;;;12.98;5.43;;;;;;;;;;5043962;28;20468;-69
2023/12/14 07:22:40;;;;;;;15.45;6.60;;;;;;;;;;5047816;28;20048;-69
2023/12/14 07:25:08;;;;;;;17.63;5.80;;;;;;;;;;5053823;28;20053;-69
2023/12/14 07:27:35;;;;;;;12.70;5.88;;;;;;;;;;5062756;28;20040;-70
2023/12/14 07:30:02;;;;;;;13.38;5.50;;;;;;;;;;5050081;28;20049;-70
2023/12/14 07:32:29;;;;;;;20.02;5.72;;;;;;;;;;5051995;28;20407;-69
2023/12/14 07:34:58;;;;;;;12.65;5.55;;;;;;;;;;5055667;28;20060;-70
2023/12/14 07:37:25;;;;;;;14.68;5.15;;;;;;;;;;5029067;28;20621;-70
2023/12/14 07:39:52;;;;;;;12.50;5.95;;;;;;;;;;5043832;28;20041;-69
2023/12/14 07:42:20;;;;;;;15.02;5.80;;;;;;;;;;5054025;28;20083;-70
2023/12/14 07:44:47;;;;;;;17.85;6.68;;;;;;;;;;5053508;28;20131;-69
2023/12/14 07:47:14;;;;;;;14.32;6.43;;;;;;;;;;5050139;28;20455;-70
2023/12/14 07:49:42;;;;;;;18.45;6.53;;;;;;;;;;5052782;28;20053;-69
2023/12/14 07:52:10;;;;;;;14.10;7.28;;;;;;;;;;5048505;28;20053;-69
2023/12/14 07:54:38;;;;;;;15.20;6.97;;;;;;;;;;5048381;28;20412;-69
2023/12/14 07:57:05;;;;;;;18.85;7.47;;;;;;;;;;5041980;28;20132;-69
2023/12/14 07:59:32;;;;;;;15.02;7.30;;;;;;;;;;5044517;28;20051;-69
2023/12/14 08:02:00;;;;;;;13.90;5.63;;;;;;;;;;5051375;28;20072;-70
2023/12/14 08:04:27;;;;;;;13.82;6.57;;;;;;;;;;5048304;28;20564;-69
2023/12/14 08:06:56;;;;;;;11.63;6.53;;;;;;;;;;5045882;28;20056;-70
2023/12/14 08:09:25;;;;;;;15.77;7.20;;;;;;;;;;5046279;28;20548;-69
2023/12/14 08:11:52;;;;;;;16.13;6.40;;;;;;;;;;5043644;28;20408;-69
2023/12/14 08:14:19;;;;;;;13.25;6.97;;;;;;;;;;5039825;28;20045;-69
2023/12/14 08:16:47;;;;;;;20.73;7.05;;;;;;;;;;5044113;28;20067;-69
2023/12/14 08:19:14;;;;;;;16.75;6.63;;;;;;;;;;5043216;28;20041;-70
2023/12/14 08:21:41;;;;;;;15.35;7.07;;;;;;;;;;5043743;28;20537;-69
2023/12/14 08:24:08;;;;;;;14.63;6.50;;;;;;;;;;5052040;28;20053;-70
2023/12/14 08:26:37;;;;;;;15.98;6.63;;;;;;;;;;5052996;28;20076;-69
2023/12/14 08:29:04;;;;;;;11.70;6.57;;;;;;;;;;5048460;28;20048;-69
2023/12/14 08:31:31;;;;;;;14.15;6.80;;;;;;;;;;5047042;28;20050;-70
2023/12/14 08:33:59;;;;;;;16.42;6.82;;;;;;;;;;5033479;28;20141;-69
2023/12/14 08:36:26;;;;;;;16.70;6.20;;;;;;;;;;5050365;28;20310;-69
2023/12/14 08:38:54;;;;;;;18.45;7.00;;;;;;;;;;5049089;28;20076;-70
2023/12/14 08:41:21;;;;;;;13.48;6.60;;;;;;;;;;5053343;28;20048;-69
2023/12/14 08:43:50;;;;;;;12.27;6.63;;;;;;;;;;5048161;28;20040;-69
2023/12/14 08:46:17;;;;;;;13.63;6.20;;;;;;;;;;5062899;28;20052;-70
2023/12/14 08:48:44;;;;;;;11.48;5.63;;;;;;;;;;5047114;28;20412;-69
2023/12/14 08:51:11;;;;;;;11.52;5.82;;;;;;;;;;5053256;28;20056;-69
2023/12/14 08:53:39;;;;;;;13.48;5.72;;;;;;;;;;5052441;28;20592;-69
2023/12/14 08:56:06;;;;;;;16.90;5.82;;;;;;;;;;5048249;28;20064;-69
2023/12/14 08:58:33;;;;;;;11.77;5.90;;;;;;;;;;5051444;28;20046;-70
2023/12/14 09:01:02;;;;;;;16.67;6.15;;;;;;;;;;5054700;28;20044;-70
2023/12/14 09:03:29;;;;;;;12.98;5.88;;;;;;;;;;5049219;28;20052;-70
2023/12/14 09:05:58;;;;;;;12.45;5.63;;;;;;;;;;5038486;28;20144;-70
2023/12/14 09:08:25;;;;;;;15.27;5.82;;;;;;;;;;5031108;28;20049;-70
2023/12/14 09:10:53;;;;;;;10.93;5.43;;;;;;;;;;5051952;28;20421;-70
2023/12/14 09:13:20;;;;;;;11.82;5.63;;;;;;;;;;5056396;28;20045;-70
2023/12/14 09:15:47;;;;;;;9.73;5.18;;;;;;;;;;5054587;28;20052;-70
2023/12/14 09:18:16;;;;;;;11.50;5.50;;;;;;;;;;5039418;28;20092;-70
2023/12/14 09:20:43;;;;;;;15.27;6.13;;;;;;;;;;5052514;28;20044;-70
2023/12/14 09:23:10;;;;;;;15.88;5.93;;;;;;;;;;5054415;28;20057;-70
2023/12/14 09:25:38;;;;;;;10.90;6.00;;;;;;;;;;5032232;28;20057;-70
2023/12/14 09:28:05;;;;;;;15.55;6.05;;;;;;;;;;5029836;28;20415;-70
2023/12/14 09:30:32;;;;;;;11.77;6.20;;;;;;;;;;5045473;28;20047;-70
2023/12/14 09:32:59;;;;;;;14.65;6.80;;;;;;;;;;5048838;28;20075;-70
2023/12/14 09:35:28;;;;;;;12.82;6.25;;;;;;;;;;5051499;28;20875;-70
2023/12/14 09:37:56;;;;;;;15.43;6.82;;;;;;;;;;5053360;28;20044;-70
2023/12/14 09:40:23;;;;;;;15.57;6.32;;;;;;;;;;5047950;28;20041;-70
2023/12/14 09:42:51;;;;;;;18.55;7.50;;;;;;;;;;5037991;28;20488;-70
2023/12/14 09:45:18;;;;;;;17.88;6.03;;;;;;;;;;5026291;28;20060;-70
2023/12/14 09:47:47;;;;;;;15.73;6.65;;;;;;;;;;5047403;28;20603;-70
2023/12/14 09:50:16;;;;;;;16.13;6.57;;;;;;;;;;5055742;28;20128;-70
2023/12/14 09:52:45;;;;;;;15.23;6.32;;;;;;;;;;5055559;28;20049;-69
2023/12/14 09:55:12;;;;;;;17.80;6.80;;;;;;;;;;5046889;28;20085;-70
2023/12/14 09:57:39;;;;;;;18.95;6.63;;;;;;;;;;5052609;28;20055;-70
2023/12/14 10:00:10;;;;;;;14.38;6.05;;;;;;;;;;5035748;28;20052;-70
2023/12/14 10:02:38;;;;;;;15.07;5.43;;;;;;;;;;5046498;28;20148;-70
2023/12/14 10:05:09;;;;;;;15.88;5.85;;;;;;;;;;5029866;28;20057;-70
2023/12/14 10:07:40;;;;;;;12.18;5.38;;;;;;;;;;5048656;28;20462;-70
2023/12/14 10:10:13;;;;;;;14.82;6.07;;;;;;;;;;5052475;28;20054;-70
2023/12/14 10:12:53;;;;;;;16.70;5.70;;;;;;;;;;5048802;28;20077;-70
2023/12/14 10:15:23;;;;;;;11.77;6.03;;;;;;;;;;5050904;28;20050;-71
2023/12/14 10:17:54;;;;;;;15.13;5.97;;;;;;;;;;5050685;28;20411;-70
2023/12/14 10:20:23;;;;;;;15.90;6.13;;;;;;;;;;5045997;28;20084;-70
2023/12/14 10:22:50;;;;;;;12.68;5.80;;;;;;;;;;5045799;28;20064;-70
2023/12/14 10:25:21;;;;;;;11.77;5.60;;;;;;;;;;5049628;28;20111;-70
2023/12/14 10:27:48;;;;;;;10.85;5.57;;;;;;;;;;5023746;28;20060;-70
2023/12/14 10:30:16;;;;;;;12.93;5.78;;;;;;;;;;5031965;28;20422;-70
2023/12/14 10:32:44;;;;;;;10.40;5.22;;;;;;;;;;5047616;28;20118;-68
2023/12/14 10:35:12;;;;;;;14.63;6.00;;;;;;;;;;5046303;28;20049;-68
2023/12/14 10:37:39;;;;;;;11.77;5.78;;;;;;;;;;5048860;28;20052;-68
2023/12/14 10:40:10;;;;;;;15.50;5.47;;;;;;;;;;5046007;28;20386;-67
2023/12/14 10:42:40;;;;;;;13.63;5.10;;;;;;;;;;5058184;28;20049;-67
2023/12/14 10:45:09;;;;;;;11.95;5.30;;;;;;;;;;5049813;28;20056;-68
2023/12/14 10:47:36;;;;;;;13.82;4.95;;;;;;;;;;5056597;28;20049;-68
2023/12/14 10:50:05;;;;;;;9.70;5.38;;;;;;;;;;5052484;28;20045;-68
2023/12/14 10:52:35;;;;;;;13.27;4.65;;;;;;;;;;5054096;28;20049;-68
2023/12/14 10:55:06;;;;;;;8.95;5.55;;;;;;;;;;5038898;28;20057;-68
2023/12/14 10:57:33;;;;;;;24.20;5.70;;;;;;;;;;5057660;28;20048;-67
2023/12/14 11:00:02;;;;;;;11.35;4.93;;;;;;;;;;5054492;28;20403;-67
2023/12/14 11:02:29;;;;;;;10.32;4.90;;;;;;;;;;5054082;28;20048;-68
2023/12/14 11:04:58;;;;;;;12.68;5.13;;;;;;;;;;5049182;28;21192;-67
2023/12/14 11:07:44;;;;;;;13.90;5.10;;;;;;;;;;5062087;28;20203;-67
2023/12/14 11:10:11;;;;;;;12.95;5.03;;;;;;;;;;5053634;28;20396;-68
2023/12/14 11:12:38;;;;;;;10.05;4.80;;;;;;;;;;5045389;28;20404;-68
2023/12/14 11:15:10;;;;;;;9.85;5.13;;;;;;;;;;5052970;28;20065;-67
2023/12/14 11:17:37;;;;;;;12.60;5.57;;;;;;;;;;5048876;28;20049;-68
2023/12/14 11:20:20;;;;;;;8.77;4.93;;;;;;;;;;5046591;28;20404;-67
2023/12/14 11:22:47;;;;;;;10.60;4.80;;;;;;;;;;5045265;28;20048;-68
2023/12/14 11:25:14;;;;;;;13.63;5.10;;;;;;;;;;5055477;28;20045;-67
2023/12/14 11:27:44;;;;;;;8.70;4.32;;;;;;;;;;5050130;28;20060;-68
2023/12/14 11:30:16;;;;;;;11.32;4.75;;;;;;;;;;5060649;28;20106;-67
2023/12/14 11:32:43;;;;;;;11.70;4.78;;;;;;;;;;5053011;28;20483;-67
2023/12/14 11:35:12;;;;;;;10.43;5.22;;;;;;;;;;5038594;28;20057;-67
2023/12/14 11:37:39;;;;;;;14.23;4.68;;;;;;;;;;5049659;28;20458;-68
2023/12/14 11:40:09;;;;;;;9.80;4.60;;;;;;;;;;5061810;28;20055;-68
2023/12/14 11:42:36;;;;;;;11.63;4.80;;;;;;;;;;5057096;28;20058;-68
2023/12/14 11:45:04;;;;;;;12.80;5.78;;;;;;;;;;5042823;28;20662;-68
2023/12/14 11:47:33;;;;;;;10.70;4.95;;;;;;;;;;5056420;28;20536;-68
2023/12/14 11:50:00;;;;;;;13.52;5.63;;;;;;;;;;5058567;28;20053;-68
2023/12/14 11:52:28;;;;;;;12.05;5.65;;;;;;;;;;5048053;28;20055;-68
2023/12/14 11:54:56;;;;;;;8.25;4.70;;;;;;;;;;5054303;28;20407;-68
2023/12/14 11:57:23;;;;;;;10.80;5.07;;;;;;;;;;5058486;28;20044;-67
2023/12/14 11:59:52;;;;;;;13.40;4.97;;;;;;;;;;5051349;28;20151;-68
2023/12/14 12:02:25;;;;;;;10.55;4.93;;;;;;;;;;5052138;28;20110;-67
2023/12/14 12:04:54;;;;;;;10.55;4.97;;;;;;;;;;5045572;28;20044;-68
2023/12/14 12:07:21;;;;;;;11.15;4.55;;;;;;;;;;5041055;28;20512;-67
2023/12/14 12:09:48;;;;;;;11.30;4.60;;;;;;;;;;5050587;28;20169;-67
2023/12/14 12:12:15;;;;;;;9.77;3.67;;;;;;;;;;5049129;28;20561;-68
2023/12/14 12:14:43;;;;;;;9.13;3.88;;;;;;;;;;5061049;28;20056;-67
2023/12/14 12:17:10;;;;;;;10.75;4.45;;;;;;;;;;5058475;28;20052;-68
2023/12/14 12:19:38;;;;;;;10.68;3.95;;;;;;;;;;5038271;28;20051;-67
2023/12/14 12:22:07;;;;;;;13.00;4.40;;;;;;;;;;5060096;28;20106;-67
2023/12/14 12:24:34;;;;;;;8.90;4.10;;;;;;;;;;5051789;28;20404;-67
2023/12/14 12:27:00;;;;;;;10.70;4.25;;;;;;;;;;5058487;28;20052;-68
2023/12/14 12:29:28;;;;;;;10.40;4.32;;;;;;;;;;5053730;28;20045;-67
2023/12/14 12:31:55;;;;;;;14.50;5.03;;;;;;;;;;5046936;28;20055;-68
2023/12/14 12:34:22;;;;;;;9.00;4.45;;;;;;;;;;5041897;28;20049;-67
2023/12/14 12:36:49;;;;;;;11.63;4.88;;;;;;;;;;5061616;28;20115;-67
2023/12/14 12:39:18;;;;;;;10.70;4.40;;;;;;;;;;5052860;28;20063;-67
2023/12/14 12:41:45;;;;;;;11.27;4.32;;;;;;;;;;5056852;28;20399;-68
2023/12/14 12:44:12;;;;;;;12.75;4.80;;;;;;;;;;5054055;28;20059;-67
2023/12/14 12:46:40;;;;;;;10.32;5.07;;;;;;;;;;5045298;28;20052;-67
2023/12/14 12:49:08;;;;;;;8.80;4.68;;;;;;;;;;5050643;28;20443;-68
2023/12/14 12:51:35;;;;;;;10.43;4.43;;;;;;;;;;5061157;28;20053;-68
2023/12/14 12:54:03;;;;;;;9.45;4.18;;;;;;;;;;5043742;28;20045;-68
2023/12/14 12:56:32;;;;;;;9.27;4.18;;;;;;;;;;5040040;28;20561;-67
2023/12/14 12:58:59;;;;;;;13.15;4.38;;;;;;;;;;5022175;28;20057;-68
2023/12/14 13:01:26;;;;;;;8.95;4.60;;;;;;;;;;5045779;28;20048;-68
2023/12/14 13:03:58;;;;;;;11.85;4.47;;;;;;;;;;5057624;28;20060;-67
2023/12/14 13:06:26;;;;;;;8.68;4.05;;;;;;;;;;5042740;28;20488;-68
2023/12/14 13:08:53;;;;;;;7.60;3.83;;;;;;;;;;5060239;28;20052;-68
2023/12/14 13:11:20;;;;;;;8.00;3.72;;;;;;;;;;5056862;28;20504;-68
2023/12/14 13:13:49;;;;;;;8.82;3.67;;;;;;;;;;5060821;28;20537;-67
2023/12/14 13:16:17;;;;;;;10.95;4.38;;;;;;;;;;5050261;28;20198;-67
2023/12/14 13:18:45;;;;;;;11.13;4.35;;;;;;;;;;5055306;28;20044;-67
2023/12/14 13:21:13;;;;;;;9.23;4.53;;;;;;;;;;5050420;28;20068;-67
2023/12/14 13:23:40;;;;;;;6.38;3.67;;;;;;;;;;5051495;28;20163;-67
2023/12/14 13:26:08;;;;;;;7.28;4.00;;;;;;;;;;5058380;28;20049;-68
2023/12/14 13:28:36;;;;;;;12.93;3.85;;;;;;;;;;5049288;28;20041;-68
2023/12/14 13:31:06;;;;;;;8.40;3.85;;;;;;;;;;5041658;28;20045;-67
2023/12/14 13:33:33;;;;;;;9.10;4.25;;;;;;;;;;5045215;28;20108;-67
2023/12/14 13:36:00;;;;;;;9.02;4.32;;;;;;;;;;5045418;28;20095;-67
2023/12/14 13:38:27;;;;;;;7.65;4.20;;;;;;;;;;5024229;28;20048;-68
2023/12/14 13:40:55;;;;;;;11.82;4.22;;;;;;;;;;5058098;28;20048;-67
2023/12/14 13:43:22;;;;;;;9.27;4.13;;;;;;;;;;5049827;28;20042;-69
2023/12/14 13:45:52;;;;;;;11.07;4.40;;;;;;;;;;5050566;28;20045;-67
2023/12/14 13:48:21;;;;;;;9.65;3.92;;;;;;;;;;5055112;28;20052;-67
2023/12/14 13:50:48;;;;;;;9.85;4.35;;;;;;;;;;5048381;28;20045;-68
2023/12/14 13:53:15;;;;;;;9.98;4.18;;;;;;;;;;5039559;28;20057;-68
2023/12/14 13:55:42;;;;;;;13.38;4.85;;;;;;;;;;5040864;28;20049;-67
2023/12/14 13:58:10;;;;;;;9.77;4.00;;;;;;;;;;5041468;28;20057;-68
2023/12/14 14:00:37;;;;;;;11.20;4.35;;;;;;;;;;5023462;28;20068;-68
2023/12/14 14:03:04;;;;;;;6.13;3.75;;;;;;;;;;5040845;28;20552;-68
2023/12/14 14:05:33;;;;;;;9.20;4.95;;;;;;;;;;5047954;28;20131;-67
2023/12/14 14:08:01;;;;;;;9.30;4.63;;;;;;;;;;5059693;28;20052;-68
2023/12/14 14:10:28;;;;;;;10.15;4.47;;;;;;;;;;5053312;28;20548;-67
2023/12/14 14:12:56;;;;;;;8.70;4.88;;;;;;;;;;5045460;28;20052;-68
2023/12/14 14:15:23;;;;;;;9.95;4.45;;;;;;;;;;5044950;28;20507;-68
2023/12/14 14:17:52;;;;;;;10.13;4.50;;;;;;;;;;5049571;28;20504;-68
2023/12/14 14:20:19;;;;;;;8.02;4.47;;;;;;;;;;5046935;28;20056;-68
2023/12/14 14:22:48;;;;;;;9.40;4.40;;;;;;;;;;5056989;28;20053;-67
2023/12/14 14:25:15;;;;;;;8.65;4.45;;;;;;;;;;5050887;28;20053;-68
2023/12/14 14:27:46;;;;;;;11.65;4.88;;;;;;;;;;5040476;28;20393;-67
2023/12/14 14:30:14;;;;;;;8.00;4.43;;;;;;;;;;5050574;28;20050;-68
2023/12/14 14:32:41;;;;;;;11.23;5.15;;;;;;;;;;5058731;28;20049;-67
2023/12/14 14:35:09;;;;;;;8.65;4.97;;;;;;;;;;5057642;28;20487;-68
2023/12/14 14:37:36;;;;;;;11.93;4.97;;;;;;;;;;5056553;28;20049;-68